Time;durP1;ratioP1;P1;durP2;ratioP2;P2;SDS_P1;SDS_P2;PMS_P1;PMS_P2;Temp;Humidity;BMP_temperature;BMP_pressure;BME280_temperature;BME280_humidity;BME280_pressure;Samples;Min_cycle;Max_cycle;Signal;HPM_P1;HPM_P2
2022/04/13 00:01:40;;;;;;;4.47;3.00;;;;;;;;;;7332406;19;162337;-16
2022/04/13 00:04:11;;;;;;;5.80;2.90;;;;;;;;;;7331457;19;154099;-16
2022/04/13 00:06:42;;;;;;;3.83;3.10;;;;;;;;;;7333597;19;153538;-16
2022/04/13 00:09:16;;;;;;;5.60;3.05;;;;;;;;;;7335058;19;161785;-14
2022/04/13 00:11:48;;;;;;;4.03;2.90;;;;;;;;;;7331457;19;162364;-13
2022/04/13 00:14:22;;;;;;;5.82;2.70;;;;;;;;;;7333712;19;154345;-16
2022/04/13 00:16:54;;;;;;;5.18;2.65;;;;;;;;;;7331203;19;153305;-17
2022/04/13 00:19:26;;;;;;;4.82;2.72;;;;;;;;;;7334184;19;161944;-17
2022/04/13 00:21:57;;;;;;;2.45;2.25;;;;;;;;;;7332476;19;162942;-15
2022/04/13 00:24:33;;;;;;;5.15;2.25;;;;;;;;;;7332033;19;154017;-15
2022/04/13 00:27:05;;;;;;;4.30;2.50;;;;;;;;;;7332380;19;153518;-13
2022/04/13 00:29:36;;;;;;;2.43;2.23;;;;;;;;;;7332036;19;162217;-14
2022/04/13 00:32:08;;;;;;;5.38;2.15;;;;;;;;;;7332345;19;162332;-14
2022/04/13 00:34:41;;;;;;;8.93;2.67;;;;;;;;;;7332851;19;154059;-17
2022/04/13 09:11:30;;;;;;;2.30;1.52;;;;;;;;;;7373319;19;132763;-16
2022/04/13 09:14:05;;;;;;;2.35;1.50;;;;;;;;;;7364944;19;153727;-17
2022/04/13 09:16:37;;;;;;;2.65;1.45;;;;;;;;;;7364494;19;161789;-18
2022/04/13 09:19:09;;;;;;;3.13;1.50;;;;;;;;;;7364973;19;162426;-17
2022/04/13 09:21:42;;;;;;;2.22;1.50;;;;;;;;;;7368669;19;153856;-17
2022/04/13 09:24:15;;;;;;;2.70;1.40;;;;;;;;;;7363698;19;153751;-18
2022/04/13 09:26:49;;;;;;;1.60;1.45;;;;;;;;;;7364164;19;161780;-18
2022/04/13 09:29:20;;;;;;;2.40;1.50;;;;;;;;;;7365650;19;162815;-18
2022/04/13 09:31:52;;;;;;;2.80;1.48;;;;;;;;;;7364634;19;153903;-17
2022/04/13 09:34:23;;;;;;;2.78;1.50;;;;;;;;;;7364438;19;153492;-17
2022/04/13 09:36:56;;;;;;;2.67;1.50;;;;;;;;;;7362297;19;161958;-16
2022/04/13 09:39:28;;;;;;;1.85;1.40;;;;;;;;;;7365800;19;162417;-17
2022/04/13 09:42:04;;;;;;;2.95;1.67;;;;;;;;;;7363915;19;154403;-16
2022/04/13 09:44:35;;;;;;;2.33;1.52;;;;;;;;;;7364401;19;153627;-17
2022/04/13 09:47:10;;;;;;;4.60;1.50;;;;;;;;;;7362971;19;162138;-17
2022/04/13 09:49:50;;;;;;;1.48;1.10;;;;;;;;;;7366530;19;162938;-17
2022/04/13 09:52:28;;;;;;;1.77;1.20;;;;;;;;;;7364907;19;154059;-17
2022/04/13 09:54:59;;;;;;;2.75;1.45;;;;;;;;;;7366481;19;153656;-17
2022/04/13 09:57:32;;;;;;;1.42;1.27;;;;;;;;;;7365809;19;162083;-17
2022/04/13 10:00:06;;;;;;;1.42;1.23;;;;;;;;;;7358932;19;162463;-17
2022/04/13 10:02:45;;;;;;;2.72;1.40;;;;;;;;;;7365611;19;153935;-17
2022/04/13 10:05:23;;;;;;;;;;;;;;;;;;7364569;19;153530;-18
2022/04/13 10:08:04;;;;;;;2.53;1.50;;;;;;;;;;7367257;19;162155;-17
2022/04/13 10:10:36;;;;;;;2.03;1.00;;;;;;;;;;7357833;19;162405;-18
2022/04/13 10:13:10;;;;;;;2.70;1.40;;;;;;;;;;7335673;19;154048;-18
2022/04/13 10:15:41;;;;;;;3.53;1.27;;;;;;;;;;7336716;19;153493;-18
2022/04/13 10:18:13;;;;;;;2.42;1.40;;;;;;;;;;7337204;19;161995;-16
2022/04/13 10:20:45;;;;;;;2.08;1.38;;;;;;;;;;7335498;19;162417;-15
2022/04/13 10:23:17;;;;;;;2.35;1.20;;;;;;;;;;7335860;19;154119;-16
2022/04/13 10:25:48;;;;;;;2.70;1.23;;;;;;;;;;7336460;19;153540;-15
2022/04/13 10:28:26;;;;;;;1.95;1.13;;;;;;;;;;7337155;19;161857;-15
2022/04/13 10:30:57;;;;;;;1.08;1.02;;;;;;;;;;7334481;19;162535;-15
2022/04/13 10:33:29;;;;;;;2.47;1.17;;;;;;;;;;7334811;19;154280;-15
2022/04/13 10:36:00;;;;;;;1.67;1.30;;;;;;;;;;7337555;19;153473;-16
2022/04/13 10:38:31;;;;;;;1.73;1.33;;;;;;;;;;7334891;19;162007;-17
2022/04/13 10:41:06;;;;;;;1.63;1.30;;;;;;;;;;7334535;19;162851;-16
2022/04/13 10:43:41;;;;;;;1.13;1.02;;;;;;;;;;7333418;19;153898;-16
2022/04/13 10:46:14;;;;;;;2.20;1.48;;;;;;;;;;7336618;19;153458;-16
2022/04/13 10:48:48;;;;;;;2.40;1.45;;;;;;;;;;7337000;19;161954;-16
2022/04/13 10:51:24;;;;;;;2.40;1.42;;;;;;;;;;7335947;19;162486;-15
2022/04/13 10:54:02;;;;;;;1.77;1.10;;;;;;;;;;7336103;19;154195;-15
2022/04/13 10:56:35;;;;;;;1.30;1.20;;;;;;;;;;7334904;19;153604;-15
2022/04/13 10:59:18;;;;;;;3.42;1.48;;;;;;;;;;7336097;19;161932;-15
2022/04/13 11:01:56;;;;;;;1.50;1.40;;;;;;;;;;7333224;19;162494;-15
2022/04/13 11:04:28;;;;;;;3.15;1.30;;;;;;;;;;7334176;19;154020;-16
2022/04/13 11:06:59;;;;;;;1.25;1.15;;;;;;;;;;7335096;19;153572;-16
2022/04/13 11:09:35;;;;;;;1.50;1.02;;;;;;;;;;7326213;19;162190;-16
2022/04/13 11:12:08;;;;;;;2.63;1.13;;;;;;;;;;7331354;19;162456;-16
2022/04/13 11:14:53;;;;;;;2.00;1.33;;;;;;;;;;7334198;19;154020;-16
2022/04/13 11:17:29;;;;;;;3.22;1.50;;;;;;;;;;7331961;19;154076;-16
2022/04/13 11:20:22;;;;;;;3.88;1.15;;;;;;;;;;7333734;19;161959;-27
2022/04/13 11:23:15;;;;;;;1.45;1.15;;;;;;;;;;7329728;19;163044;-16
2022/04/13 11:25:54;;;;;;;2.00;0.95;;;;;;;;;;7334982;19;154183;-16
2022/04/13 11:28:27;;;;;;;1.20;1.00;;;;;;;;;;7335196;19;153543;-16
2022/04/13 11:31:08;;;;;;;;;;;;;;;;;;7334123;19;162012;-17
2022/04/13 11:33:55;;;;;;;1.80;1.02;;;;;;;;;;7335333;19;162649;-16
2022/04/13 11:36:31;;;;;;;3.55;1.10;;;;;;;;;;7334597;19;154364;-15
2022/04/13 11:39:16;;;;;;;1.77;1.20;;;;;;;;;;7334767;19;153478;-17
2022/04/13 11:41:53;;;;;;;2.67;1.13;;;;;;;;;;7331697;19;162135;-17
2022/04/13 11:44:24;;;;;;;1.67;1.30;;;;;;;;;;7334674;19;162525;-17
2022/04/13 11:47:15;;;;;;;0.93;0.93;;;;;;;;;;7335281;19;153948;-18
2022/04/13 11:49:57;;;;;;;1.23;1.10;;;;;;;;;;7334016;19;153580;-17
2022/04/13 11:52:43;;;;;;;1.60;1.38;;;;;;;;;;7334368;19;161794;-16
2022/04/13 11:55:18;;;;;;;1.77;1.30;;;;;;;;;;7333448;19;162378;-18
2022/04/13 11:58:23;;;;;;;1.48;0.90;;;;;;;;;;7333934;19;153938;-17
2022/04/13 12:00:59;;;;;;;1.95;1.38;;;;;;;;;;7334457;19;153775;-17
2022/04/13 12:03:36;;;;;;;1.15;1.15;;;;;;;;;;7333787;19;162005;-17
2022/04/13 12:06:10;;;;;;;1.58;1.30;;;;;;;;;;7333333;19;162362;-17
2022/04/13 12:08:42;;;;;;;1.10;1.00;;;;;;;;;;7334055;19;153992;-18
2022/04/13 12:11:16;;;;;;;1.23;0.93;;;;;;;;;;7326488;19;153520;-17
2022/04/13 12:13:52;;;;;;;0.90;0.88;;;;;;;;;;7332979;19;161806;-17
2022/04/13 12:16:29;;;;;;;0.98;0.90;;;;;;;;;;7332876;19;162492;-16
2022/04/13 12:19:07;;;;;;;1.08;0.98;;;;;;;;;;7334640;19;153768;-17
2022/04/13 12:21:39;;;;;;;1.10;1.00;;;;;;;;;;7331705;19;153487;-17
2022/04/13 12:24:13;;;;;;;1.23;0.90;;;;;;;;;;7332656;19;161799;-16
2022/04/13 12:26:46;;;;;;;2.03;1.23;;;;;;;;;;7332199;19;162621;-17
2022/04/13 12:29:18;;;;;;;1.65;1.15;;;;;;;;;;7330359;19;155252;-17
2022/04/13 12:31:51;;;;;;;1.88;1.00;;;;;;;;;;7332150;19;153496;-16
2022/04/13 12:34:26;;;;;;;1.10;0.95;;;;;;;;;;7331281;19;161864;-16
2022/04/13 12:37:01;;;;;;;1.05;0.82;;;;;;;;;;7333335;19;162344;-17
2022/04/13 12:39:33;;;;;;;1.45;1.10;;;;;;;;;;7331925;19;153699;-17
2022/04/13 12:42:07;;;;;;;2.33;1.00;;;;;;;;;;7329376;19;153652;-17
2022/04/13 12:44:47;;;;;;;1.67;1.15;;;;;;;;;;7330686;19;161808;-17
2022/04/13 12:47:18;;;;;;;1.55;1.10;;;;;;;;;;7330529;19;162409;-17
2022/04/13 12:50:04;;;;;;;2.67;1.08;;;;;;;;;;7333325;19;154017;-18
2022/04/13 12:52:35;;;;;;;1.70;1.30;;;;;;;;;;7333174;19;154020;-16
2022/04/13 12:55:08;;;;;;;1.42;1.00;;;;;;;;;;7332787;19;161812;-17
2022/04/13 12:57:39;;;;;;;1.30;1.00;;;;;;;;;;7330049;19;162532;-16
2022/04/13 13:00:13;;;;;;;2.90;1.00;;;;;;;;;;7331729;19;154229;-17
2022/04/13 13:02:52;;;;;;;2.92;0.93;;;;;;;;;;7329959;19;153498;-17
2022/04/13 13:05:28;;;;;;;2.38;1.08;;;;;;;;;;7331794;19;161821;-17
2022/04/13 13:08:05;;;;;;;1.35;1.02;;;;;;;;;;7332700;19;162474;-17
2022/04/13 13:10:37;;;;;;;2.65;1.05;;;;;;;;;;7330293;19;153964;-17
2022/04/13 13:13:12;;;;;;;1.33;1.23;;;;;;;;;;7332351;19;153480;-17
2022/04/13 13:15:43;;;;;;;1.95;1.02;;;;;;;;;;7330831;19;161898;-17
2022/04/13 13:18:15;;;;;;;1.00;1.00;;;;;;;;;;7331862;19;162407;-16
2022/04/13 13:20:59;;;;;;;1.13;1.02;;;;;;;;;;7329852;19;154289;-17
2022/04/13 13:23:32;;;;;;;1.23;1.05;;;;;;;;;;7329183;19;154107;-17
2022/04/13 13:26:05;;;;;;;3.13;1.25;;;;;;;;;;7331335;19;161820;-17
2022/04/13 13:28:36;;;;;;;1.63;1.10;;;;;;;;;;7331336;19;162644;-17
2022/04/13 13:31:11;;;;;;;1.10;1.00;;;;;;;;;;7330607;19;154072;-18
2022/04/13 13:33:54;;;;;;;1.67;1.17;;;;;;;;;;7331762;19;153546;-17
2022/04/13 13:36:28;;;;;;;1.88;1.00;;;;;;;;;;7329305;19;162458;-17
2022/04/13 13:39:00;;;;;;;1.33;1.23;;;;;;;;;;7330786;19;162500;-17
2022/04/13 13:41:31;;;;;;;1.13;1.00;;;;;;;;;;7330931;19;154003;-17
2022/04/13 13:44:02;;;;;;;1.13;0.70;;;;;;;;;;7327469;19;153579;-17
2022/04/13 13:46:34;;;;;;;3.92;1.30;;;;;;;;;;7333633;19;161961;-18
2022/04/13 13:49:05;;;;;;;2.47;1.50;;;;;;;;;;7335874;19;162393;-17
2022/04/13 13:51:39;;;;;;;1.20;1.10;;;;;;;;;;7338114;19;154956;-17
2022/04/13 13:54:10;;;;;;;1.15;0.93;;;;;;;;;;7336806;19;153475;-18
2022/04/13 13:56:42;;;;;;;1.13;0.98;;;;;;;;;;7336514;19;162135;-17
2022/04/13 13:59:13;;;;;;;3.13;1.00;;;;;;;;;;7338070;19;162641;-17
2022/04/13 14:01:44;;;;;;;1.00;1.00;;;;;;;;;;7336918;19;154296;-17
2022/04/13 14:04:16;;;;;;;1.63;0.80;;;;;;;;;;7335041;19;153608;-17
2022/04/13 14:06:50;;;;;;;1.15;1.15;;;;;;;;;;7337337;19;161851;-17
2022/04/13 14:09:21;;;;;;;1.83;1.15;;;;;;;;;;7335598;19;162505;-17
2022/04/13 14:11:53;;;;;;;0.95;0.95;;;;;;;;;;7336731;19;153934;-17
2022/04/13 14:14:24;;;;;;;1.10;1.10;;;;;;;;;;7337572;19;153633;-15
2022/04/13 14:16:55;;;;;;;2.47;0.88;;;;;;;;;;7335484;19;162094;-16
2022/04/13 14:19:27;;;;;;;0.95;0.82;;;;;;;;;;7336244;19;162801;-17
2022/04/13 14:22:00;;;;;;;1.33;0.82;;;;;;;;;;7337378;19;154075;-15
2022/04/13 14:24:32;;;;;;;1.25;1.00;;;;;;;;;;7333643;19;153794;-17
2022/04/13 14:27:03;;;;;;;0.82;0.70;;;;;;;;;;7334978;19;162044;-18
2022/04/13 14:29:34;;;;;;;0.95;0.85;;;;;;;;;;7334910;19;163074;-17
2022/04/13 14:32:06;;;;;;;0.70;0.70;;;;;;;;;;7335676;19;154065;-18
2022/04/13 14:34:37;;;;;;;0.80;0.80;;;;;;;;;;7334587;19;153652;-17
2022/04/13 14:37:11;;;;;;;0.82;0.82;;;;;;;;;;7335684;19;161809;-17
2022/04/13 14:39:43;;;;;;;0.80;0.80;;;;;;;;;;7333073;19;162546;-18
2022/04/13 14:42:14;;;;;;;0.90;0.90;;;;;;;;;;7334445;19;154525;-17
2022/04/13 14:44:45;;;;;;;0.95;0.88;;;;;;;;;;7333815;19;153584;-17
2022/04/13 14:47:17;;;;;;;0.98;0.98;;;;;;;;;;7335864;19;162038;-17
2022/04/13 14:49:49;;;;;;;0.93;0.93;;;;;;;;;;7335946;19;162562;-17
2022/04/13 14:52:23;;;;;;;0.90;0.90;;;;;;;;;;7336281;19;154587;-17
2022/04/13 14:54:54;;;;;;;1.27;0.80;;;;;;;;;;7336511;19;153506;-17
2022/04/13 14:57:26;;;;;;;1.65;0.95;;;;;;;;;;7335960;19;162033;-16
2022/04/13 14:59:57;;;;;;;1.08;0.90;;;;;;;;;;7336261;19;162489;-18
2022/04/13 15:02:28;;;;;;;1.40;0.93;;;;;;;;;;7336518;19;153795;-16
2022/04/13 15:04:59;;;;;;;2.15;1.30;;;;;;;;;;7332431;19;153864;-17
2022/04/13 15:07:33;;;;;;;1.52;1.10;;;;;;;;;;7333354;19;161897;-17
2022/04/13 15:10:05;;;;;;;2.15;0.90;;;;;;;;;;7334336;19;162601;-16
2022/04/13 15:12:37;;;;;;;2.50;1.00;;;;;;;;;;7335321;19;153947;-15
2022/04/13 15:15:10;;;;;;;1.23;1.00;;;;;;;;;;7333971;19;153556;-16
2022/04/13 15:17:41;;;;;;;1.02;0.90;;;;;;;;;;7334894;19;161919;-17
2022/04/13 15:20:14;;;;;;;1.45;1.02;;;;;;;;;;7335118;19;162358;-16
2022/04/13 15:22:48;;;;;;;1.30;0.85;;;;;;;;;;7335651;19;154018;-16
2022/04/13 15:25:19;;;;;;;0.85;0.80;;;;;;;;;;7331881;19;153573;-17
2022/04/13 15:27:52;;;;;;;3.30;1.13;;;;;;;;;;7334855;19;161845;-17
2022/04/13 15:30:25;;;;;;;2.55;0.80;;;;;;;;;;7334982;19;162615;-15
2022/04/13 15:32:56;;;;;;;1.48;0.68;;;;;;;;;;7334219;19;154419;-16
2022/04/13 15:35:28;;;;;;;2.42;0.95;;;;;;;;;;7333357;19;153495;-19
2022/04/13 15:38:01;;;;;;;0.70;0.70;;;;;;;;;;7334000;19;161891;-17
2022/04/13 15:40:33;;;;;;;1.00;0.90;;;;;;;;;;7333926;19;162441;-16
2022/04/13 15:43:04;;;;;;;2.05;1.00;;;;;;;;;;7334995;19;153921;-16
2022/04/13 15:45:36;;;;;;;1.80;0.80;;;;;;;;;;7334558;19;153933;-16
2022/04/13 15:48:08;;;;;;;1.55;0.93;;;;;;;;;;7332965;19;161890;-16
2022/04/13 15:50:43;;;;;;;1.33;1.23;;;;;;;;;;7334001;19;162426;-15
2022/04/13 15:53:21;;;;;;;1.00;0.90;;;;;;;;;;7332683;19;154095;-17
2022/04/13 15:55:52;;;;;;;2.58;1.02;;;;;;;;;;7334236;19;153921;-15
2022/04/13 15:58:24;;;;;;;0.63;0.63;;;;;;;;;;7335097;19;161780;-15
2022/04/13 16:00:55;;;;;;;1.77;1.02;;;;;;;;;;7330608;19;162627;-14
2022/04/13 16:03:26;;;;;;;2.30;1.15;;;;;;;;;;7333086;19;153958;-15
2022/04/13 16:05:57;;;;;;;1.90;1.10;;;;;;;;;;7333603;19;153475;-15
2022/04/13 16:08:32;;;;;;;3.47;0.85;;;;;;;;;;7333291;19;161939;-15
2022/04/13 16:11:03;;;;;;;4.07;1.20;;;;;;;;;;7329058;19;162418;-16
2022/04/13 16:13:34;;;;;;;1.98;0.70;;;;;;;;;;7333126;19;154348;-15
2022/04/13 16:16:06;;;;;;;0.70;0.70;;;;;;;;;;7334158;19;153648;-15
2022/04/13 16:18:37;;;;;;;1.42;1.17;;;;;;;;;;7333289;19;162003;-17
2022/04/13 16:21:09;;;;;;;2.15;1.20;;;;;;;;;;7331698;19;162267;-15
2022/04/13 16:23:43;;;;;;;3.75;1.08;;;;;;;;;;7332585;19;154163;-18
2022/04/13 16:26:14;;;;;;;2.28;1.30;;;;;;;;;;7333766;19;153432;-17
2022/04/13 16:28:46;;;;;;;7.43;1.35;;;;;;;;;;7334093;19;162155;-18
2022/04/13 16:31:18;;;;;;;3.42;1.40;;;;;;;;;;7331700;19;162403;-18
2022/04/13 16:33:49;;;;;;;2.60;1.00;;;;;;;;;;7332940;19;154005;-17
2022/04/13 16:36:20;;;;;;;2.13;1.00;;;;;;;;;;7333884;19;153530;-17
2022/04/13 16:38:54;;;;;;;6.50;1.20;;;;;;;;;;7333961;19;161959;-17
2022/04/13 16:41:26;;;;;;;3.53;1.00;;;;;;;;;;7331582;19;162525;-18
2022/04/13 16:44:11;;;;;;;2.83;0.98;;;;;;;;;;7330445;19;153997;-17
2022/04/13 16:46:42;;;;;;;7.13;1.73;;;;;;;;;;7332003;19;153626;-16
2022/04/13 16:49:13;;;;;;;3.80;1.30;;;;;;;;;;7330755;19;161781;-15
2022/04/13 16:51:45;;;;;;;2.90;1.00;;;;;;;;;;7329381;19;162652;-16
2022/04/13 16:54:19;;;;;;;2.70;1.15;;;;;;;;;;7332689;19;154312;-16
2022/04/13 16:56:50;;;;;;;6.03;1.00;;;;;;;;;;7334103;19;153705;-16
2022/04/13 16:59:21;;;;;;;3.58;1.13;;;;;;;;;;7330918;19;162025;-17
2022/04/13 17:01:53;;;;;;;2.63;0.80;;;;;;;;;;7328246;19;162508;-18
2022/04/13 17:04:24;;;;;;;3.88;1.10;;;;;;;;;;7328717;19;154021;-17
2022/04/13 17:06:56;;;;;;;2.15;0.95;;;;;;;;;;7330169;19;153512;-16
2022/04/13 17:09:29;;;;;;;2.63;1.10;;;;;;;;;;7328666;19;161912;-17
2022/04/13 17:12:04;;;;;;;1.35;1.10;;;;;;;;;;7331877;19;162484;-17
2022/04/13 17:14:37;;;;;;;2.38;1.00;;;;;;;;;;7332992;19;154011;-18
2022/04/13 17:17:08;;;;;;;5.50;1.00;;;;;;;;;;7330361;19;153746;-17
2022/04/13 17:19:39;;;;;;;2.00;1.10;;;;;;;;;;7330977;19;161757;-17
2022/04/13 17:22:11;;;;;;;4.10;0.90;;;;;;;;;;7336535;19;162478;-17
2022/04/13 17:24:46;;;;;;;1.83;0.98;;;;;;;;;;7339493;19;154089;-17
2022/04/13 17:27:19;;;;;;;2.83;1.08;;;;;;;;;;7337106;19;154118;-18
2022/04/13 17:29:52;;;;;;;1.63;0.93;;;;;;;;;;7338002;19;161827;-18
2022/04/13 17:32:27;;;;;;;2.97;1.20;;;;;;;;;;7339129;19;162535;-17
2022/04/13 17:34:58;;;;;;;2.97;1.10;;;;;;;;;;7336604;19;154009;-17
2022/04/13 17:37:29;;;;;;;1.77;0.95;;;;;;;;;;7337216;19;153573;-17
2022/04/13 17:40:03;;;;;;;4.53;1.42;;;;;;;;;;7337997;19;161974;-18
2022/04/13 17:42:35;;;;;;;2.92;1.08;;;;;;;;;;7338732;19;162671;-16
2022/04/13 17:45:08;;;;;;;5.20;1.20;;;;;;;;;;7335622;19;153950;-16
2022/04/13 17:47:39;;;;;;;1.27;1.00;;;;;;;;;;7336055;19;153688;-17
2022/04/13 17:50:11;;;;;;;3.47;1.00;;;;;;;;;;7337724;19;162029;-18
2022/04/13 17:52:42;;;;;;;1.40;1.20;;;;;;;;;;7339135;19;162387;-16
2022/04/13 17:55:16;;;;;;;3.33;1.02;;;;;;;;;;7336360;19;154053;-16
2022/04/13 17:57:48;;;;;;;3.58;1.02;;;;;;;;;;7335827;19;153724;-17
2022/04/13 18:00:20;;;;;;;1.42;1.00;;;;;;;;;;7334936;19;161788;-17
2022/04/13 18:02:52;;;;;;;1.65;1.23;;;;;;;;;;7332825;19;162301;-16
2022/04/13 18:05:24;;;;;;;1.50;0.90;;;;;;;;;;7335469;19;154120;-17
2022/04/13 18:07:56;;;;;;;1.70;0.80;;;;;;;;;;7334839;19;153761;-17
2022/04/13 18:10:30;;;;;;;1.27;1.00;;;;;;;;;;7331752;19;161885;-17
2022/04/13 18:13:01;;;;;;;3.72;0.88;;;;;;;;;;7333400;19;162379;-16
2022/04/13 18:15:34;;;;;;;2.22;0.95;;;;;;;;;;7331447;19;154081;-17
2022/04/13 18:18:06;;;;;;;2.15;0.98;;;;;;;;;;7335664;19;153608;-16
2022/04/13 18:20:37;;;;;;;1.85;0.98;;;;;;;;;;7334428;19;161599;-16
2022/04/13 18:23:09;;;;;;;3.08;0.90;;;;;;;;;;7332500;19;162384;-16
2022/04/13 18:25:43;;;;;;;2.35;1.00;;;;;;;;;;7337275;19;153983;-16
2022/04/13 18:28:14;;;;;;;1.80;1.10;;;;;;;;;;7335264;19;153655;-16
2022/04/13 18:30:46;;;;;;;1.00;0.90;;;;;;;;;;7336843;19;161792;-17
2022/04/13 18:33:18;;;;;;;2.90;0.82;;;;;;;;;;7334088;19;162868;-17
2022/04/13 18:35:49;;;;;;;2.20;0.90;;;;;;;;;;7336368;19;154100;-17
2022/04/13 18:38:20;;;;;;;3.13;1.05;;;;;;;;;;7336946;19;153547;-17
2022/04/13 18:40:54;;;;;;;1.27;0.82;;;;;;;;;;7337593;19;162063;-17
2022/04/13 18:43:25;;;;;;;3.63;1.02;;;;;;;;;;7334783;19;162563;-16
2022/04/13 18:45:57;;;;;;;10.00;1.27;;;;;;;;;;7335200;19;154103;-17
2022/04/13 18:48:28;;;;;;;2.05;0.93;;;;;;;;;;7335496;19;153632;-17
2022/04/13 18:50:59;;;;;;;1.38;1.00;;;;;;;;;;7334006;19;161772;-17
2022/04/13 18:53:31;;;;;;;1.10;0.60;;;;;;;;;;7332466;19;162586;-17
2022/04/13 18:56:05;;;;;;;2.80;0.93;;;;;;;;;;7332748;19;154465;-17
2022/04/13 18:58:38;;;;;;;2.38;0.95;;;;;;;;;;7332216;19;153592;-17
2022/04/13 19:01:09;;;;;;;1.48;0.90;;;;;;;;;;7329425;19;161810;-18
2022/04/13 19:03:42;;;;;;;2.00;0.80;;;;;;;;;;7330202;19;162413;-16
2022/04/13 19:06:18;;;;;;;2.05;1.02;;;;;;;;;;7330852;19;154356;-17
2022/04/13 19:08:54;;;;;;;4.82;0.75;;;;;;;;;;7332800;19;154408;-17
2022/04/13 19:11:32;;;;;;;0.70;0.70;;;;;;;;;;7326858;19;161852;-17
2022/04/13 19:14:05;;;;;;;1.30;0.75;;;;;;;;;;7330554;19;162505;-16
2022/04/13 19:16:39;;;;;;;2.67;1.10;;;;;;;;;;7331816;19;153992;-17
2022/04/13 19:19:11;;;;;;;1.65;0.90;;;;;;;;;;7329231;19;153537;-17
2022/04/13 19:21:44;;;;;;;3.42;1.10;;;;;;;;;;7328387;19;161883;-17
2022/04/13 19:24:20;;;;;;;0.70;0.70;;;;;;;;;;7330717;19;162339;-17
2022/04/13 19:26:57;;;;;;;1.58;0.80;;;;;;;;;;7334070;19;153983;-17
2022/04/13 19:29:29;;;;;;;1.73;0.82;;;;;;;;;;7333981;19;153543;-17
2022/04/13 19:32:00;;;;;;;2.45;0.70;;;;;;;;;;7334436;19;161825;-18
2022/04/13 19:34:32;;;;;;;3.58;0.95;;;;;;;;;;7334558;19;162550;-17
2022/04/13 19:37:06;;;;;;;2.70;1.10;;;;;;;;;;7332369;19;154277;-18
2022/04/13 19:39:41;;;;;;;1.60;0.80;;;;;;;;;;7334687;19;153521;-20
2022/04/13 19:42:16;;;;;;;7.38;1.38;;;;;;;;;;7334641;19;162090;-17
2022/04/13 19:44:48;;;;;;;4.70;1.50;;;;;;;;;;7332604;19;162619;-17
2022/04/13 19:47:19;;;;;;;4.35;1.20;;;;;;;;;;7331054;19;154243;-18
2022/04/13 19:49:51;;;;;;;6.38;1.40;;;;;;;;;;7335750;19;153534;-18
2022/04/13 19:52:23;;;;;;;4.32;1.60;;;;;;;;;;7334398;19;162024;-15
2022/04/13 19:54:55;;;;;;;10.25;3.60;;;;;;;;;;7333441;19;162559;-16
2022/04/13 19:57:29;;;;;;;9.70;5.50;;;;;;;;;;7333119;19;154178;-18
2022/04/13 20:00:00;;;;;;;15.85;7.43;;;;;;;;;;7333899;19;153463;-17
2022/04/13 20:02:39;;;;;;;29.80;15.30;;;;;;;;;;7335000;19;161769;-16
2022/04/13 20:05:11;;;;;;;46.17;21.90;;;;;;;;;;7331147;19;162506;-17
2022/04/13 20:07:43;;;;;;;55.03;23.60;;;;;;;;;;7331569;19;153960;-17
2022/04/13 20:10:16;;;;;;;59.97;25.40;;;;;;;;;;7331957;19;153805;-17
2022/04/13 20:12:50;;;;;;;67.03;28.35;;;;;;;;;;7334783;19;161812;-18
2022/04/13 20:15:22;;;;;;;69.28;29.10;;;;;;;;;;7332456;19;162341;-17
2022/04/13 20:18:00;;;;;;;62.67;26.60;;;;;;;;;;7332036;19;154097;-17
2022/04/13 20:20:32;;;;;;;54.95;25.58;;;;;;;;;;7334365;19;153648;-17
2022/04/13 20:23:04;;;;;;;55.80;23.33;;;;;;;;;;7331672;19;161808;-17
2022/04/13 20:25:35;;;;;;;51.75;23.40;;;;;;;;;;7332462;19;162477;-17
2022/04/13 20:28:10;;;;;;;57.43;23.60;;;;;;;;;;7330300;19;154307;-19
2022/04/13 20:30:43;;;;;;;45.00;21.30;;;;;;;;;;7334260;19;153611;-17
2022/04/13 20:33:15;;;;;;;53.95;22.67;;;;;;;;;;7333007;19;161927;-16
2022/04/13 20:35:47;;;;;;;45.72;22.23;;;;;;;;;;7331247;19;163052;-17
2022/04/13 20:38:18;;;;;;;44.67;20.83;;;;;;;;;;7334089;19;154158;-17
2022/04/13 20:40:51;;;;;;;45.63;20.83;;;;;;;;;;7333651;19;153883;-22
2022/04/13 20:43:24;;;;;;;;;;;;;;;;;;7331851;19;161861;-17
2022/04/13 20:45:56;;;;;;;45.47;18.70;;;;;;;;;;7332672;19;162521;-17
2022/04/13 20:48:27;;;;;;;40.28;18.83;;;;;;;;;;7331473;19;154023;-16
2022/04/13 20:50:58;;;;;;;42.95;19.67;;;;;;;;;;7330477;19;153701;-18
2022/04/13 20:53:30;;;;;;;32.63;17.42;;;;;;;;;;7331469;19;161781;-17
2022/04/13 20:56:03;;;;;;;32.83;16.42;;;;;;;;;;7328239;19;162355;-16
2022/04/13 20:58:37;;;;;;;34.20;15.88;;;;;;;;;;7333868;19;153954;-17
2022/04/13 21:01:09;;;;;;;34.08;17.20;;;;;;;;;;7330919;19;153627;-17
2022/04/13 21:03:41;;;;;;;31.05;15.70;;;;;;;;;;7331269;19;161757;-18
2022/04/13 21:06:12;;;;;;;35.83;16.30;;;;;;;;;;7332510;19;162385;-17
2022/04/13 21:08:43;;;;;;;33.83;16.13;;;;;;;;;;7331633;19;153986;-18
2022/04/13 21:11:16;;;;;;;27.20;16.13;;;;;;;;;;7328305;19;153580;-17
2022/04/13 21:13:50;;;;;;;35.88;15.02;;;;;;;;;;7329891;19;161859;-16
2022/04/13 21:16:22;;;;;;;31.90;15.48;;;;;;;;;;7331877;19;162529;-18
2022/04/13 21:18:54;;;;;;;31.33;15.35;;;;;;;;;;7332246;19;153972;-17
2022/04/13 21:21:25;;;;;;;35.83;14.07;;;;;;;;;;7332149;19;153756;-18
2022/04/13 21:23:56;;;;;;;32.42;14.45;;;;;;;;;;7331245;19;163154;-23
2022/04/13 21:26:28;;;;;;;32.60;14.15;;;;;;;;;;7330715;19;162479;-18
2022/04/13 21:29:02;;;;;;;31.00;13.98;;;;;;;;;;7328693;19;154071;-17
2022/04/13 21:31:36;;;;;;;30.75;14.18;;;;;;;;;;7330495;19;153762;-17
2022/04/13 21:34:07;;;;;;;34.70;13.57;;;;;;;;;;7330951;19;161892;-17
2022/04/13 21:36:39;;;;;;;31.75;14.02;;;;;;;;;;7331600;19;162801;-17
2022/04/13 21:39:10;;;;;;;30.35;13.85;;;;;;;;;;7331234;19;154099;-16
2022/04/13 21:41:42;;;;;;;29.17;13.13;;;;;;;;;;7331318;19;153609;-16
2022/04/13 21:44:16;;;;;;;34.28;13.32;;;;;;;;;;7330457;19;161953;-16
2022/04/13 21:46:50;;;;;;;23.50;12.30;;;;;;;;;;7331237;19;162416;-17
2022/04/13 21:49:22;;;;;;;25.80;11.95;;;;;;;;;;7329487;19;154030;-17
2022/04/13 21:51:53;;;;;;;26.80;12.60;;;;;;;;;;7331710;19;153844;-18
2022/04/13 21:54:24;;;;;;;25.30;12.23;;;;;;;;;;7330441;19;162077;-18
2022/04/13 21:56:55;;;;;;;31.98;12.30;;;;;;;;;;7330570;19;162205;-17
2022/04/13 21:59:29;;;;;;;24.65;11.45;;;;;;;;;;7331509;19;153909;-16
2022/04/13 22:02:00;;;;;;;21.50;10.60;;;;;;;;;;7330402;19;153791;-19
2022/04/13 22:04:32;;;;;;;24.90;10.18;;;;;;;;;;7330148;19;162005;-17
2022/04/13 22:07:03;;;;;;;22.73;10.50;;;;;;;;;;7332034;19;162411;-19
2022/04/13 22:09:34;;;;;;;21.00;10.60;;;;;;;;;;7335507;19;154039;-18
2022/04/13 22:12:06;;;;;;;18.95;9.95;;;;;;;;;;7337751;19;153568;-16
2022/04/13 22:14:40;;;;;;;19.15;9.65;;;;;;;;;;7337357;19;162326;-17
2022/04/13 22:17:12;;;;;;;19.33;9.13;;;;;;;;;;7337596;19;162620;-18
2022/04/13 22:19:43;;;;;;;23.23;10.20;;;;;;;;;;7335468;19;154005;-18
2022/04/13 22:22:15;;;;;;;23.05;10.27;;;;;;;;;;7338637;19;153631;-17
2022/04/13 22:24:46;;;;;;;25.70;10.57;;;;;;;;;;7337906;19;161840;-18
2022/04/13 22:27:19;;;;;;;22.00;10.35;;;;;;;;;;7335176;19;162367;-19
2022/04/13 22:29:53;;;;;;;19.75;10.25;;;;;;;;;;7334661;19;154033;-19
2022/04/13 22:32:24;;;;;;;22.23;10.18;;;;;;;;;;7336325;19;153628;-19
2022/04/13 22:34:55;;;;;;;20.55;9.20;;;;;;;;;;7334377;19;161827;-18
2022/04/13 22:37:27;;;;;;;18.92;10.05;;;;;;;;;;7334126;19;162613;-18
2022/04/13 22:39:58;;;;;;;18.13;10.75;;;;;;;;;;7336619;19;154270;-17
2022/04/13 22:42:32;;;;;;;18.23;9.55;;;;;;;;;;7337563;19;153711;-19
2022/04/13 22:45:06;;;;;;;17.02;8.60;;;;;;;;;;7334606;19;162086;-17
2022/04/13 22:47:37;;;;;;;18.45;9.02;;;;;;;;;;7335370;19;162340;-18
2022/04/13 22:50:10;;;;;;;14.77;8.15;;;;;;;;;;7334812;19;154292;-17
2022/04/13 22:52:42;;;;;;;18.67;9.40;;;;;;;;;;7337836;19;153910;-18
2022/04/13 22:55:13;;;;;;;18.05;9.30;;;;;;;;;;7334643;19;161932;-19
2022/04/13 22:57:44;;;;;;;17.38;9.43;;;;;;;;;;7335411;19;162489;-18
2022/04/13 23:00:19;;;;;;;20.33;8.95;;;;;;;;;;7336823;19;154321;-19
2022/04/13 23:02:51;;;;;;;22.75;9.38;;;;;;;;;;7337873;19;153674;-18
2022/04/13 23:05:22;;;;;;;18.63;8.02;;;;;;;;;;7334247;19;161809;-18
2022/04/13 23:07:53;;;;;;;14.40;7.85;;;;;;;;;;7335296;19;162610;-16
2022/04/13 23:10:24;;;;;;;18.08;8.00;;;;;;;;;;7334140;19;154048;-18
2022/04/13 23:12:56;;;;;;;14.98;7.70;;;;;;;;;;7333471;19;153690;-19
2022/04/13 23:15:30;;;;;;;19.67;9.05;;;;;;;;;;7334490;19;161898;-18
2022/04/13 23:18:01;;;;;;;15.90;8.30;;;;;;;;;;7335307;19;162383;-29
2022/04/13 23:20:32;;;;;;;16.95;7.90;;;;;;;;;;7335497;19;154258;-18
2022/04/13 23:23:04;;;;;;;17.95;7.35;;;;;;;;;;7333837;19;153782;-18
2022/04/13 23:25:35;;;;;;;16.42;7.88;;;;;;;;;;7334266;19;161742;-17
2022/04/13 23:28:08;;;;;;;14.82;7.28;;;;;;;;;;7335213;19;162179;-18
2022/04/13 23:30:42;;;;;;;15.48;7.40;;;;;;;;;;7334087;19;154151;-18
2022/04/13 23:33:14;;;;;;;16.60;7.95;;;;;;;;;;7332403;19;153648;-18
2022/04/13 23:35:45;;;;;;;13.88;6.65;;;;;;;;;;7334395;19;161950;-18